createdAt,value
2023-04-12T05:44:56.173Z,77.70
2023-04-12T05:47:23.909Z,77.93
2023-04-12T05:49:51.045Z,77.58
2023-04-12T05:52:18.606Z,77.77
2023-04-12T05:54:45.990Z,77.79
2023-04-12T05:57:17.916Z,77.73
2023-04-12T05:59:47.628Z,77.59
2023-04-12T06:02:14.826Z,77.89
2023-04-12T06:04:50.167Z,77.79
2023-04-12T06:07:19.717Z,77.64
2023-04-12T06:09:47.459Z,77.63
2023-04-12T06:12:14.853Z,77.45
2023-04-12T06:14:41.589Z,77.67
2023-04-12T06:17:08.853Z,77.64
2023-04-12T06:19:36.100Z,77.56
2023-04-12T06:22:02.966Z,77.80
2023-04-12T06:24:31.733Z,77.56
2023-04-12T06:26:58.671Z,77.49
2023-04-12T06:29:26.332Z,77.63
2023-04-12T06:31:53.327Z,77.39
2023-04-12T06:34:20.172Z,77.19
2023-04-12T06:36:47.972Z,77.32
2023-04-12T06:39:16.458Z,77.21
2023-04-12T06:41:47.702Z,77.22
2023-04-12T06:44:19.716Z,77.18
2023-04-12T06:46:46.813Z,77.22
2023-04-12T06:49:13.615Z,77.01
2023-04-12T06:51:40.398Z,77.33
2023-04-12T06:54:07.153Z,77.12
2023-04-12T06:56:34.838Z,76.87
2023-04-12T06:59:01.694Z,76.96
2023-04-12T07:01:31.868Z,76.42
2023-04-12T07:03:58.817Z,76.33
2023-04-12T07:06:26.388Z,76.18
2023-04-12T07:08:53.273Z,76.03
2023-04-12T07:11:22.969Z,75.99
2023-04-12T07:13:50.459Z,75.46
2023-04-12T07:16:17.988Z,75.52
2023-04-12T07:18:44.872Z,75.33
2023-04-12T07:21:14.664Z,74.86
2023-04-12T07:23:41.535Z,74.64
2023-04-12T07:26:08.321Z,74.63
2023-04-12T07:28:36.512Z,74.43
2023-04-12T09:01:34.898Z,67.07
2023-04-12T09:04:06.921Z,66.93
2023-04-12T09:06:34.154Z,66.26
2023-04-12T09:09:01.669Z,65.88
2023-04-12T09:11:28.893Z,65.77
2023-04-12T09:13:58.476Z,65.60
2023-04-12T09:16:39.797Z,65.14
2023-04-12T09:19:06.663Z,64.57
2023-04-12T09:21:34.997Z,64.61
2023-04-12T09:24:11.601Z,64.18
2023-04-12T09:26:40.458Z,64.05
2023-04-12T09:29:22.011Z,63.68
2023-04-12T09:32:08.476Z,62.75
2023-04-12T09:34:36.445Z,62.42
2023-04-12T09:37:13.830Z,61.93
2023-04-12T09:39:41.039Z,60.85
2023-04-12T09:42:25.028Z,60.30
2023-04-12T09:44:57.704Z,60.13
2023-04-12T09:47:38.211Z,59.46
2023-04-12T09:50:07.505Z,59.18
2023-04-12T09:52:38.917Z,58.94
2023-04-12T09:55:11.121Z,58.82
2023-04-12T09:57:43.703Z,58.82
2023-04-12T10:00:18.101Z,57.83
2023-04-12T10:02:47.710Z,57.31
2023-04-12T10:05:17.487Z,56.73
2023-04-12T10:07:45.161Z,56.07
2023-04-12T10:10:13.270Z,55.63
2023-04-12T10:12:41.562Z,55.71
2023-04-12T10:15:18.071Z,55.64
2023-04-12T10:17:51.542Z,55.72
2023-04-12T10:20:19.346Z,55.55
2023-04-12T10:22:48.531Z,55.22
2023-04-12T10:25:18.403Z,54.93
2023-04-12T10:27:46.248Z,54.88
2023-04-12T10:30:30.148Z,54.46
2023-04-12T10:33:03.182Z,54.13
2023-04-12T10:35:31.620Z,53.51
2023-04-12T10:38:03.198Z,53.48
2023-04-12T10:40:31.868Z,52.96
2023-04-12T10:43:23.620Z,52.82
2023-04-12T10:45:50.697Z,52.39
2023-04-12T10:48:32.195Z,52.26
2023-04-12T10:51:25.510Z,52.38
2023-04-12T10:53:54.174Z,52.37
2023-04-12T10:56:32.669Z,51.89
2023-04-12T10:59:04.497Z,51.66
2023-04-12T11:02:03.234Z,51.42
2023-04-12T11:04:30.427Z,51.41
2023-04-12T11:07:07.542Z,50.99
2023-04-12T11:10:01.814Z,50.99
2023-04-12T11:12:34.211Z,51.15
2023-04-12T11:15:02.346Z,50.89
2023-04-12T11:17:57.452Z,50.74
2023-04-12T11:20:27.278Z,51.03
2023-04-12T11:22:55.065Z,50.85
2023-04-12T11:25:24.417Z,50.31
2023-04-12T11:27:51.969Z,50.47
2023-04-12T11:30:20.111Z,50.75
2023-04-12T11:32:47.816Z,50.85
2023-04-12T11:35:16.381Z,51.23
2023-04-12T11:37:44.289Z,50.72
2023-04-12T11:40:11.512Z,50.60
2023-04-12T11:42:39.956Z,50.31
2023-04-12T11:45:15.774Z,49.75
2023-04-12T11:47:46.628Z,49.25
2023-04-12T11:50:13.625Z,49.29
2023-04-12T11:52:41.516Z,48.96
2023-04-12T11:55:11.366Z,48.27
2023-04-12T11:57:39.083Z,47.85
2023-04-12T12:00:07.017Z,47.26
2023-04-12T12:02:46.665Z,47.46
2023-04-12T12:05:23.837Z,47.11
2023-04-12T12:07:52.853Z,46.53
2023-04-12T12:10:36.570Z,46.54
2023-04-12T12:13:13.730Z,46.16
2023-04-12T12:15:45.215Z,45.62
2023-04-12T12:18:12.199Z,45.98
2023-04-12T12:20:57.105Z,45.76
2023-04-12T12:23:31.157Z,45.59
2023-04-12T12:26:14.194Z,45.19
2023-04-12T12:28:49.812Z,45.15
2023-04-12T12:31:20.575Z,45.37
2023-04-12T12:33:47.780Z,45.37
2023-04-12T12:36:18.774Z,45.78
2023-04-12T12:38:45.755Z,45.63
2023-04-12T12:41:23.576Z,45.15
2023-04-12T12:43:52.338Z,45.55
2023-04-12T12:46:20.460Z,45.39
2023-04-12T12:48:48.240Z,45.29
2023-04-12T12:51:20.020Z,44.91
2023-04-12T12:53:47.054Z,44.40
2023-04-12T12:56:14.604Z,44.29
2023-04-12T12:58:42.275Z,44.65
2023-04-12T13:01:09.223Z,44.67
2023-04-12T13:03:36.413Z,44.60
2023-04-12T13:06:03.394Z,43.78
2023-04-12T13:08:34.603Z,44.40
2023-04-12T13:11:01.396Z,44.53
2023-04-12T13:13:28.202Z,44.83
2023-04-12T13:15:55.048Z,44.26
2023-04-12T13:18:21.846Z,44.47
2023-04-12T13:20:48.580Z,44.16
2023-04-12T13:23:15.525Z,43.94
2023-04-12T13:25:42.262Z,43.60
2023-04-12T13:28:09.030Z,44.06
2023-04-12T13:30:36.261Z,43.94
2023-04-12T13:33:03.227Z,43.40
2023-04-12T13:35:30.189Z,43.33
2023-04-12T13:37:56.960Z,42.87
2023-04-12T13:40:23.841Z,43.13
2023-04-12T13:42:50.621Z,42.58
2023-04-12T13:45:17.408Z,42.83
2023-04-12T13:47:44.233Z,42.76
2023-04-12T13:50:11.251Z,42.84
2023-04-12T13:52:38.040Z,42.90
2023-04-12T13:55:08.551Z,41.98
2023-04-12T13:57:36.086Z,41.71
2023-04-12T14:00:02.894Z,41.83
2023-04-12T14:02:32.113Z,42.29
2023-04-12T14:05:00.129Z,42.16
2023-04-12T14:07:28.919Z,41.87
2023-04-12T14:09:57.589Z,41.79
2023-04-12T14:12:24.362Z,41.50
2023-04-12T14:14:51.154Z,41.26
2023-04-12T14:17:18.068Z,41.97
2023-04-12T14:19:44.869Z,42.15
2023-04-12T14:22:11.610Z,42.09
2023-04-12T14:24:38.698Z,42.34
2023-04-12T14:27:05.711Z,42.45
2023-04-12T14:29:32.529Z,42.69
2023-04-12T14:31:59.290Z,42.45
2023-04-12T14:34:26.197Z,42.92
2023-04-12T14:36:52.923Z,43.10
2023-04-12T14:39:19.767Z,43.01
2023-04-12T14:41:46.522Z,43.18
2023-04-12T14:44:13.296Z,43.54
2023-04-12T14:46:40.135Z,43.74
2023-04-12T14:49:07.184Z,44.21
2023-04-12T14:51:34.089Z,44.45
2023-04-12T14:54:01.156Z,44.37
2023-04-12T14:56:30.436Z,44.36
2023-04-12T14:58:58.321Z,44.67
2023-04-12T15:01:25.921Z,44.40
2023-04-12T15:03:53.709Z,44.78
2023-04-12T15:06:24.056Z,44.63
2023-04-12T15:08:54.640Z,45.06
2023-04-12T15:11:27.255Z,45.08
2023-04-12T15:13:55.432Z,45.23
2023-04-12T15:16:22.763Z,45.41
2023-04-12T15:18:50.745Z,45.51
2023-04-12T15:21:17.736Z,45.78
2023-04-12T15:23:45.136Z,45.51
2023-04-12T15:26:14.391Z,45.30
2023-04-12T15:28:41.982Z,45.82
2023-04-12T15:31:09.679Z,45.78
2023-04-12T15:33:37.457Z,45.93
2023-04-12T15:36:05.243Z,46.20
2023-04-12T15:38:32.187Z,45.93
2023-04-12T15:41:00.778Z,46.50
2023-04-12T15:43:28.274Z,46.53
2023-04-12T15:45:55.164Z,46.86
2023-04-12T15:48:23.317Z,47.04
2023-04-12T15:50:51.150Z,47.53
2023-04-12T15:53:20.116Z,47.75
2023-04-12T15:55:47.367Z,48.13
2023-04-12T15:58:14.780Z,48.51
2023-04-12T16:00:42.625Z,48.31
2023-04-12T16:03:09.761Z,48.60
2023-04-12T16:05:36.825Z,49.03
2023-04-12T16:08:04.008Z,49.41
2023-04-12T16:10:30.889Z,50.06
2023-04-12T16:13:00.590Z,50.25
2023-04-12T16:15:27.454Z,51.10
2023-04-12T16:17:55.810Z,51.73
2023-04-12T16:20:23.401Z,52.27
2023-04-12T16:22:54.645Z,52.72
2023-04-12T16:25:23.077Z,53.55
2023-04-12T16:27:50.621Z,54.30
2023-04-12T16:30:17.698Z,55.12
2023-04-12T16:32:46.876Z,55.60
2023-04-12T16:35:15.088Z,55.90
2023-04-12T16:37:43.086Z,56.33
2023-04-12T16:40:12.675Z,56.41
2023-04-12T16:42:44.146Z,56.91
2023-04-12T16:45:14.078Z,57.38
2023-04-12T16:47:41.156Z,57.58
2023-04-12T16:50:12.944Z,57.90
2023-04-12T16:52:41.709Z,58.00
2023-04-12T16:55:12.198Z,58.31
2023-04-12T16:57:42.959Z,58.83
2023-04-12T17:00:29.477Z,58.78
2023-04-12T17:02:56.366Z,59.10
2023-04-12T17:05:24.905Z,59.36
2023-04-12T17:07:54.522Z,59.87
2023-04-12T17:10:22.848Z,60.11
2023-04-12T17:12:51.665Z,59.85
2023-04-12T17:15:21.165Z,60.04
2023-04-12T17:17:49.635Z,60.27
2023-04-12T17:20:17.604Z,60.84
2023-04-12T17:22:45.176Z,61.32
2023-04-12T17:25:12.651Z,61.44
2023-04-12T17:27:40.601Z,61.70
2023-04-12T17:30:10.864Z,62.18
2023-04-12T17:32:38.593Z,62.37
2023-04-12T17:35:07.061Z,62.45
2023-04-12T17:37:37.454Z,62.78
2023-04-12T17:40:05.634Z,62.86
2023-04-12T17:42:32.714Z,62.71
2023-04-12T17:44:59.553Z,63.06
2023-04-12T17:47:26.370Z,63.03
2023-04-12T17:49:53.197Z,63.39
2023-04-12T17:52:20.094Z,63.43
2023-04-12T17:54:47.270Z,63.45
2023-04-12T17:57:14.127Z,63.52
2023-04-12T17:59:40.948Z,63.97
2023-04-12T18:02:07.763Z,63.93
2023-04-12T18:04:34.848Z,64.35
2023-04-12T18:07:01.923Z,64.50
2023-04-12T18:09:28.776Z,64.83
2023-04-12T18:11:55.648Z,65.16
2023-04-12T18:14:22.522Z,64.73
2023-04-12T18:16:49.484Z,65.00
2023-04-12T18:19:19.058Z,65.11
2023-04-12T18:21:48.831Z,65.29
2023-04-12T18:24:17.124Z,66.06
2023-04-12T18:26:45.316Z,65.68
2023-04-12T18:29:14.568Z,65.54
2023-04-12T18:31:41.823Z,65.45
2023-04-12T18:34:09.034Z,65.81
2023-04-12T18:36:39.648Z,65.89
2023-04-12T18:39:08.182Z,65.82
2023-04-12T18:41:34.981Z,65.58
2023-04-12T18:44:01.912Z,66.01
2023-04-12T18:46:29.789Z,65.93
2023-04-12T18:48:57.058Z,66.20
2023-04-12T18:51:24.476Z,66.09
